createdAt,value
2018-02-15T00:00:59.210Z,17.33
2018-02-15T00:03:25.882Z,15.60
2018-02-15T00:05:52.631Z,16.75
2018-02-15T00:08:20.103Z,15.07
2018-02-15T00:10:47.527Z,15.82
2018-02-15T00:13:14.202Z,15.25
2018-02-15T00:15:41.643Z,15.30
2018-02-15T00:18:09.098Z,16.45
2018-02-15T00:20:35.808Z,17.50
2018-02-15T00:23:02.510Z,21.15
2018-02-15T00:25:29.904Z,17.20
2018-02-15T00:27:56.794Z,15.90
2018-02-15T00:30:24.205Z,17.55
2018-02-15T00:32:50.931Z,17.02
2018-02-15T00:35:18.329Z,15.32
2018-02-15T00:37:45.035Z,14.68
2018-02-15T00:40:12.454Z,15.40
2018-02-15T00:42:39.175Z,15.07
2018-02-15T00:45:05.908Z,14.75
2018-02-15T00:47:32.559Z,13.52
2018-02-15T00:49:59.278Z,14.20
2018-02-15T00:52:25.956Z,15.30
2018-02-15T00:54:52.687Z,15.70
2018-02-15T00:57:19.384Z,14.05
2018-02-15T00:59:46.798Z,14.95
2018-02-15T01:02:13.500Z,14.93
2018-02-15T01:04:40.996Z,14.13
2018-02-15T01:07:07.676Z,13.90
2018-02-15T01:09:41.245Z,13.52
2018-02-15T01:12:07.939Z,14.15
2018-02-15T01:14:35.373Z,15.07
2018-02-15T01:17:02.084Z,12.43
2018-02-15T01:19:28.780Z,13.70
2018-02-15T01:21:56.236Z,14.63
2018-02-15T01:24:22.922Z,15.15
2018-02-15T01:26:49.600Z,14.75
2018-02-15T01:29:16.296Z,15.48
2018-02-15T01:31:42.986Z,15.75
2018-02-15T01:34:09.718Z,12.82
2018-02-15T01:36:36.414Z,13.93
2018-02-15T01:39:03.901Z,15.02
2018-02-15T01:41:30.582Z,13.62
2018-02-15T01:43:57.246Z,14.73
2018-02-15T01:46:23.918Z,13.40
2018-02-15T01:48:50.603Z,12.90
2018-02-15T01:51:17.257Z,14.00
2018-02-15T01:53:43.995Z,13.77
2018-02-15T01:56:10.643Z,13.35
2018-02-15T01:58:37.401Z,14.52
2018-02-15T02:01:04.054Z,13.35
2018-02-15T02:03:31.500Z,14.45
2018-02-15T02:05:58.169Z,15.65
2018-02-15T02:08:25.578Z,13.38
2018-02-15T02:10:52.253Z,15.20
2018-02-15T02:13:19.668Z,14.20
2018-02-15T02:15:46.377Z,15.65
2018-02-15T02:18:13.839Z,13.65
2018-02-15T02:20:40.511Z,13.25
2018-02-15T02:23:07.186Z,14.80
2018-02-15T02:25:33.869Z,14.23
2018-02-15T02:28:00.565Z,13.25
2018-02-15T02:30:27.259Z,12.55
2018-02-15T02:32:53.942Z,14.75
2018-02-15T02:35:20.634Z,16.65
2018-02-15T02:37:48.071Z,14.10
2018-02-15T02:40:14.745Z,14.52
2018-02-15T02:42:41.446Z,14.48
2018-02-15T02:45:08.105Z,14.00
2018-02-15T02:47:35.779Z,13.75
2018-02-15T02:50:03.289Z,14.60
2018-02-15T02:52:36.940Z,14.70
2018-02-15T02:55:04.457Z,15.15
2018-02-15T02:57:31.107Z,13.60
2018-02-15T02:59:57.790Z,14.65
2018-02-15T03:02:25.202Z,13.95
2018-02-15T03:04:51.874Z,14.40
2018-02-15T03:07:18.668Z,13.43
2018-02-15T03:09:45.363Z,14.87
2018-02-15T03:12:12.077Z,13.50
2018-02-15T03:14:38.775Z,13.98
2018-02-15T03:17:06.183Z,14.25
2018-02-15T03:19:32.862Z,14.52
2018-02-15T03:21:59.527Z,13.40
2018-02-15T03:24:33.825Z,18.52
2018-02-15T03:27:00.516Z,17.73
2018-02-15T03:29:27.204Z,20.17
2018-02-15T03:31:53.876Z,18.00
2018-02-15T03:34:21.276Z,17.35
2018-02-15T03:36:47.940Z,15.80
2018-02-15T03:39:14.641Z,16.65
2018-02-15T03:41:41.314Z,16.25
2018-02-15T03:44:07.972Z,14.98
2018-02-15T03:46:34.619Z,15.90
2018-02-15T03:49:01.322Z,16.70
2018-02-15T03:51:27.984Z,16.75
2018-02-15T03:53:54.649Z,16.55
2018-02-15T03:56:21.334Z,18.25
2018-02-15T03:58:48.059Z,18.62
2018-02-15T04:01:15.494Z,19.02
2018-02-15T04:03:42.903Z,17.12
2018-02-15T04:06:09.591Z,17.67
2018-02-15T04:08:36.264Z,17.52
2018-02-15T04:11:03.668Z,16.27
2018-02-15T04:13:30.373Z,19.10
2018-02-15T04:15:57.786Z,20.60
2018-02-15T04:18:24.449Z,18.20
2018-02-15T04:20:52.668Z,19.67
2018-02-15T04:23:19.361Z,17.90
2018-02-15T04:25:46.051Z,16.02
2018-02-15T04:28:12.738Z,18.23
2018-02-15T04:30:39.418Z,20.58
2018-02-15T04:33:06.919Z,21.52
2018-02-15T04:35:33.623Z,23.33
2018-02-15T04:38:01.036Z,21.35
2018-02-15T04:40:27.739Z,22.10
2018-02-15T04:42:54.519Z,20.80
2018-02-15T04:45:21.212Z,22.95
2018-02-15T04:47:48.627Z,22.02
2018-02-15T04:50:15.296Z,21.35
2018-02-15T04:52:41.973Z,23.60
2018-02-15T04:55:09.397Z,22.25
2018-02-15T04:57:36.087Z,20.55
2018-02-15T05:00:02.878Z,21.33
2018-02-15T05:02:29.542Z,20.23
2018-02-15T05:04:56.215Z,18.80
2018-02-15T05:07:22.899Z,20.58
2018-02-15T05:09:49.580Z,20.27
2018-02-15T05:12:16.400Z,20.65
2018-02-15T05:14:43.104Z,21.33
2018-02-15T05:17:09.830Z,19.92
2018-02-15T05:19:36.547Z,20.05
2018-02-15T05:22:04.003Z,21.98
2018-02-15T05:24:32.494Z,20.48
2018-02-15T05:26:59.878Z,20.27
2018-02-15T05:29:26.581Z,21.60
2018-02-15T05:31:53.254Z,20.20
2018-02-15T05:34:20.694Z,19.02
2018-02-15T05:36:47.371Z,18.48
2018-02-15T05:39:14.063Z,18.90
2018-02-15T05:41:40.729Z,19.30
2018-02-15T05:44:07.435Z,18.62
2018-02-15T05:46:34.182Z,21.67
2018-02-15T05:49:00.837Z,20.62
2018-02-15T05:51:27.528Z,19.05
2018-02-15T05:53:54.439Z,30.92
2018-02-15T05:56:21.209Z,18.35
2018-02-15T05:58:48.649Z,18.20
2018-02-15T06:01:15.345Z,20.02
2018-02-15T06:03:42.040Z,20.37
2018-02-15T06:06:08.724Z,20.33
2018-02-15T06:08:35.409Z,19.17
2018-02-15T06:11:02.842Z,19.40
2018-02-15T06:13:29.504Z,20.62
2018-02-15T06:15:56.232Z,20.25
2018-02-15T06:18:22.923Z,19.80
2018-02-15T06:20:50.351Z,22.10
2018-02-15T06:23:17.017Z,20.48
2018-02-15T06:25:43.738Z,18.25
2018-02-15T06:28:10.411Z,19.60
2018-02-15T06:30:37.899Z,17.40
2018-02-15T06:33:04.569Z,23.45
2018-02-15T06:35:31.820Z,17.77
2018-02-15T06:37:58.491Z,17.92
2018-02-15T06:40:25.232Z,15.35
2018-02-15T06:42:51.969Z,16.02
2018-02-15T06:45:18.697Z,14.87
2018-02-15T06:47:45.358Z,14.82
2018-02-15T06:50:13.028Z,15.40
2018-02-15T06:52:39.735Z,14.38
2018-02-15T06:55:06.427Z,14.40
2018-02-15T06:57:33.184Z,14.80
2018-02-15T07:00:00.658Z,14.90
2018-02-15T07:02:27.432Z,14.40
2018-02-15T07:05:09.076Z,15.50
2018-02-15T07:07:35.855Z,16.40
2018-02-15T07:10:02.578Z,16.73
2018-02-15T07:12:30.036Z,16.77
2018-02-15T07:14:59.557Z,17.03
2018-02-15T07:17:26.269Z,16.80
2018-02-15T07:19:53.795Z,15.17
2018-02-15T07:22:20.523Z,15.47
2018-02-15T07:24:47.265Z,16.33
2018-02-15T07:27:14.039Z,16.80
2018-02-15T07:29:40.724Z,16.80
2018-02-15T07:32:09.055Z,15.80
2018-02-15T07:34:37.766Z,15.97
2018-02-15T07:37:06.136Z,16.93
2018-02-15T07:39:35.466Z,16.60
2018-02-15T07:42:03.805Z,15.20
2018-02-15T07:44:32.170Z,16.33
2018-02-15T07:47:00.574Z,15.80
2018-02-15T07:49:28.949Z,16.70
2018-02-15T07:51:57.311Z,16.80
2018-02-15T07:54:25.690Z,15.90
2018-02-15T07:56:54.118Z,15.13
2018-02-15T07:59:22.481Z,16.47
2018-02-15T08:01:50.834Z,15.73
2018-02-15T08:04:19.302Z,17.27
2018-02-15T08:06:47.660Z,17.10
2018-02-15T08:09:16.011Z,16.67
2018-02-15T08:11:44.378Z,16.10
2018-02-15T08:14:12.748Z,17.23
2018-02-15T08:16:41.061Z,18.57
2018-02-15T08:19:09.384Z,17.00
2018-02-15T08:21:37.753Z,16.97
2018-02-15T08:24:06.117Z,16.20
2018-02-15T08:26:34.485Z,16.23
2018-02-15T08:29:02.808Z,17.70
2018-02-15T08:31:31.138Z,17.03
2018-02-15T08:33:59.462Z,18.73
2018-02-15T08:36:27.788Z,16.40
2018-02-15T08:38:56.146Z,16.73
2018-02-15T08:41:24.460Z,17.07
2018-02-15T08:43:52.762Z,18.07
2018-02-15T08:46:21.108Z,17.97
2018-02-15T08:48:49.453Z,16.83
2018-02-15T08:51:17.779Z,18.20
2018-02-15T08:53:46.146Z,17.73
2018-02-15T08:56:14.469Z,17.33
2018-02-15T08:58:41.198Z,18.40
2018-02-15T09:01:07.919Z,18.97
2018-02-15T09:03:36.254Z,17.73
2018-02-15T09:06:04.658Z,18.00
2018-02-15T09:08:33.058Z,19.27
2018-02-15T09:11:01.430Z,18.60
2018-02-15T09:13:29.780Z,18.10
2018-02-15T09:15:58.122Z,19.17
2018-02-15T09:18:26.557Z,18.57
2018-02-15T09:20:53.237Z,18.57
2018-02-15T09:23:20.702Z,19.17
2018-02-15T09:25:48.130Z,19.40
2018-02-15T09:28:14.805Z,19.17
2018-02-15T09:30:43.301Z,19.40
2018-02-15T09:33:11.628Z,19.67
2018-02-15T09:35:42.026Z,20.03
2018-02-15T09:38:10.368Z,18.63
2018-02-15T09:40:38.685Z,20.40
2018-02-15T09:43:07.033Z,18.87
2018-02-15T09:45:35.361Z,18.90
2018-02-15T09:48:03.701Z,17.80
2018-02-15T09:50:32.064Z,18.03
2018-02-15T09:53:00.418Z,17.90
2018-02-15T09:55:28.752Z,19.40
2018-02-15T09:57:57.095Z,17.80
2018-02-15T10:00:25.427Z,17.20
2018-02-15T10:02:55.408Z,17.30
2018-02-15T10:05:23.726Z,18.57
2018-02-15T10:07:52.069Z,17.50
2018-02-15T10:10:21.467Z,16.67
2018-02-15T10:12:48.179Z,17.10
2018-02-15T10:15:14.908Z,16.13
2018-02-15T10:17:43.309Z,16.67
2018-02-15T10:20:10.025Z,15.53
2018-02-15T10:22:38.389Z,14.87
2018-02-15T10:25:06.753Z,16.33
2018-02-15T10:27:35.128Z,17.47
2018-02-15T10:30:03.504Z,15.63
2018-02-15T10:32:31.831Z,16.40
2018-02-15T10:35:00.187Z,16.90
2018-02-15T10:37:28.546Z,17.10
2018-02-15T10:39:56.931Z,16.53
2018-02-15T10:42:25.253Z,16.10
2018-02-15T10:44:53.576Z,15.80
2018-02-15T10:47:22.025Z,16.93
2018-02-15T10:49:50.398Z,13.67
2018-02-15T10:52:18.895Z,14.00
2018-02-15T10:54:47.262Z,13.80
2018-02-15T10:57:16.402Z,13.60
2018-02-15T10:59:45.104Z,13.17
2018-02-15T11:02:19.603Z,13.57
2018-02-15T11:04:53.996Z,14.83
2018-02-15T11:07:22.378Z,11.13
2018-02-15T11:09:50.712Z,15.30
2018-02-15T11:12:19.056Z,14.30
2018-02-15T11:14:48.561Z,12.93
2018-02-15T11:17:16.907Z,13.37
2018-02-15T11:19:45.274Z,12.57
2018-02-15T11:22:14.550Z,11.40
2018-02-15T11:24:44.002Z,11.73
2018-02-15T11:27:12.392Z,12.33
2018-02-15T11:29:40.752Z,12.50
2018-02-15T11:32:09.148Z,13.40
2018-02-15T11:34:37.294Z,13.37
2018-02-15T11:37:04.734Z,12.40
2018-02-15T11:39:33.051Z,13.43
2018-02-15T11:42:01.384Z,13.23
2018-02-15T11:44:30.779Z,13.63
2018-02-15T11:47:00.096Z,13.10
2018-02-15T11:49:29.431Z,13.37
2018-02-15T11:51:57.801Z,14.00
2018-02-15T11:54:26.130Z,12.40
2018-02-15T11:56:54.482Z,13.33
2018-02-15T11:59:22.806Z,12.43
2018-02-15T12:01:49.523Z,12.87
2018-02-15T12:04:16.311Z,12.80
2018-02-15T12:06:43.024Z,12.87
2018-02-15T12:09:09.967Z,13.33
2018-02-15T12:11:37.799Z,12.43
2018-02-15T12:14:05.349Z,12.30
2018-02-15T12:16:32.055Z,13.07
2018-02-15T12:18:58.766Z,12.33
2018-02-15T12:21:25.739Z,12.90
2018-02-15T12:23:52.424Z,13.30
2018-02-15T12:26:19.360Z,12.57
2018-02-15T12:28:46.085Z,11.40
2018-02-15T12:31:12.827Z,11.00
2018-02-15T12:33:39.533Z,12.00
2018-02-15T12:36:06.981Z,10.60
2018-02-15T12:38:34.555Z,11.90
2018-02-15T12:41:03.309Z,11.00
2018-02-15T12:43:30.003Z,11.47
2018-02-15T12:45:56.731Z,11.63
2018-02-15T12:48:24.273Z,12.80
2018-02-15T12:50:50.995Z,10.67
2018-02-15T12:53:17.704Z,10.83
2018-02-15T12:55:44.442Z,10.80
2018-02-15T12:58:11.182Z,10.83
2018-02-15T13:00:37.866Z,11.07
2018-02-15T13:03:04.586Z,11.40
2018-02-15T13:05:31.387Z,11.90
2018-02-15T13:07:58.900Z,11.37
2018-02-15T13:10:25.599Z,12.40
2018-02-15T13:13:11.175Z,11.93
2018-02-15T13:15:56.856Z,12.67
2018-02-15T13:18:23.618Z,10.63
2018-02-15T13:20:51.981Z,9.33
2018-02-15T13:23:20.409Z,11.37
2018-02-15T13:25:48.892Z,11.93
2018-02-15T13:28:29.609Z,10.50
2018-02-15T13:30:58.053Z,10.80
2018-02-15T13:33:26.431Z,11.00
2018-02-15T13:35:54.875Z,11.30
2018-02-15T13:38:23.310Z,11.60
2018-02-15T13:40:51.737Z,10.43
2018-02-15T13:43:20.092Z,11.27
2018-02-15T13:45:47.960Z,9.77
2018-02-15T13:48:14.706Z,12.47
2018-02-15T13:50:41.498Z,11.30
2018-02-15T13:53:08.289Z,9.87
2018-02-15T13:55:34.993Z,10.52
2018-02-15T13:58:01.727Z,11.10
2018-02-15T14:00:29.282Z,11.37
2018-02-15T14:02:58.901Z,10.05
2018-02-15T14:05:26.370Z,10.38
2018-02-15T14:07:53.824Z,11.52
2018-02-15T14:10:21.307Z,10.70
2018-02-15T14:12:48.068Z,9.98
2018-02-15T14:15:14.836Z,11.67
2018-02-15T14:17:41.616Z,10.43
2018-02-15T14:20:09.145Z,10.75
2018-02-15T14:22:35.878Z,11.15
2018-02-15T14:25:02.652Z,10.15
2018-02-15T14:27:29.529Z,12.52
2018-02-15T14:29:57.010Z,11.45
2018-02-15T14:32:23.748Z,10.90
2018-02-15T14:34:50.487Z,12.50
2018-02-15T14:37:18.015Z,12.20
2018-02-15T14:39:44.839Z,12.27
2018-02-15T14:42:11.579Z,10.43
2018-02-15T14:44:38.297Z,11.07
2018-02-15T14:47:07.017Z,10.77
2018-02-15T14:49:33.779Z,11.07
2018-02-15T14:52:00.587Z,12.13
2018-02-15T14:54:27.564Z,11.75
2018-02-15T14:56:54.249Z,12.60
2018-02-15T14:59:21.774Z,11.77
2018-02-15T15:01:48.556Z,12.43
2018-02-15T15:04:16.040Z,12.57
2018-02-15T15:06:42.767Z,13.35
2018-02-15T15:09:10.293Z,11.77
2018-02-15T15:11:37.032Z,13.05
2018-02-15T15:14:03.760Z,14.38
2018-02-15T15:16:30.456Z,11.90
2018-02-15T15:18:57.906Z,12.43
2018-02-15T15:21:24.594Z,13.65
2018-02-15T15:23:51.290Z,13.50
2018-02-15T15:26:17.998Z,14.05
2018-02-15T15:28:44.742Z,14.18
2018-02-15T15:31:11.544Z,13.85
2018-02-15T15:33:39.137Z,12.30
2018-02-15T15:36:05.822Z,12.77
2018-02-15T15:38:32.565Z,14.27
2018-02-15T15:40:59.233Z,13.15
2018-02-15T15:43:27.174Z,13.70
2018-02-15T15:45:53.887Z,14.87
2018-02-15T15:48:20.651Z,15.00
2018-02-15T15:50:47.350Z,13.95
2018-02-15T15:53:14.168Z,15.93
2018-02-15T15:55:40.909Z,14.60
2018-02-15T15:58:07.653Z,15.40
2018-02-15T16:00:34.357Z,14.55
2018-02-15T16:03:01.066Z,14.40
2018-02-15T16:05:28.498Z,16.75
2018-02-15T16:07:55.272Z,15.13
2018-02-15T16:10:22.695Z,15.50
2018-02-15T16:12:49.458Z,16.73
2018-02-15T16:15:19.108Z,17.35
2018-02-15T16:17:45.824Z,16.62
2018-02-15T16:20:28.202Z,15.40
2018-02-15T16:22:55.089Z,18.17
2018-02-15T16:25:22.517Z,16.80
2018-02-15T16:27:51.346Z,16.75
2018-02-15T16:30:18.079Z,15.52
2018-02-15T16:32:45.567Z,18.10
2018-02-15T16:35:12.353Z,18.15
2018-02-15T16:37:39.075Z,16.52
2018-02-15T16:40:05.808Z,17.73
2018-02-15T16:42:32.506Z,17.30
2018-02-15T16:44:59.205Z,17.50
2018-02-15T16:47:25.910Z,17.98
2018-02-15T16:49:53.414Z,17.92
2018-02-15T16:52:20.143Z,18.62
2018-02-15T16:54:46.813Z,17.87
2018-02-15T16:57:13.593Z,16.67
2018-02-15T16:59:41.027Z,19.30
2018-02-15T17:02:07.764Z,20.20
2018-02-15T17:04:34.517Z,20.98
2018-02-15T17:07:01.262Z,19.27
2018-02-15T17:09:28.005Z,21.27
2018-02-15T17:11:54.798Z,21.02
2018-02-15T17:14:21.512Z,21.05
2018-02-15T17:16:49.000Z,19.98
2018-02-15T17:19:15.700Z,21.70
2018-02-15T17:21:42.458Z,19.83
2018-02-15T17:24:09.178Z,23.02
2018-02-15T17:26:35.876Z,22.70
2018-02-15T17:29:02.619Z,23.95
2018-02-15T17:31:29.339Z,20.98
2018-02-15T17:33:56.200Z,23.05
2018-02-15T17:36:23.656Z,22.62
2018-02-15T17:38:51.087Z,23.45
2018-02-15T17:41:18.776Z,22.85
2018-02-15T17:43:46.206Z,21.35
2018-02-15T17:46:12.972Z,20.37
2018-02-15T17:48:39.673Z,22.98
2018-02-15T17:51:06.399Z,21.77
2018-02-15T17:53:33.184Z,20.70
2018-02-15T17:55:59.873Z,21.50
2018-02-15T17:58:27.314Z,25.37
2018-02-15T18:00:54.044Z,24.65
2018-02-15T18:03:20.784Z,24.77
2018-02-15T18:05:47.457Z,23.92
2018-02-15T18:08:14.931Z,26.17
2018-02-15T18:10:41.672Z,27.17
2018-02-15T18:13:09.315Z,26.33
2018-02-15T18:15:37.125Z,29.70
2018-02-15T18:18:03.866Z,31.50
2018-02-15T18:20:30.653Z,30.08
2018-02-15T18:22:57.523Z,28.35
2018-02-15T18:25:24.199Z,28.48
2018-02-15T18:27:51.031Z,23.80
2018-02-15T18:30:17.758Z,22.80
2018-02-15T18:32:45.171Z,23.65
2018-02-15T18:35:11.850Z,23.98
2018-02-15T18:37:38.599Z,24.08
2018-02-15T18:40:05.306Z,23.80
2018-02-15T18:42:31.958Z,26.58
2018-02-15T18:44:58.662Z,26.90
2018-02-15T18:47:25.392Z,25.33
2018-02-15T18:49:52.150Z,26.65
2018-02-15T18:52:18.895Z,26.42
2018-02-15T18:54:45.658Z,29.23
2018-02-15T18:57:12.402Z,29.15
2018-02-15T18:59:39.189Z,30.48
2018-02-15T19:02:05.987Z,29.35
2018-02-15T19:04:32.737Z,28.75
2018-02-15T19:06:59.469Z,26.80
2018-02-15T19:09:26.222Z,27.00
2018-02-15T19:11:52.924Z,25.62
2018-02-15T19:14:20.451Z,27.75
2018-02-15T19:16:47.185Z,27.23
2018-02-15T19:19:13.930Z,24.98
2018-02-15T19:21:40.677Z,24.80
2018-02-15T19:24:07.413Z,23.55
2018-02-15T19:26:34.154Z,24.92
2018-02-15T19:29:00.870Z,26.00
2018-02-15T19:31:27.614Z,25.48
2018-02-15T19:33:54.371Z,25.40
2018-02-15T19:36:21.116Z,26.73
2018-02-15T19:38:47.854Z,27.20
2018-02-15T19:41:14.533Z,25.45
2018-02-15T19:43:41.298Z,23.20
2018-02-15T19:46:08.215Z,25.33
2018-02-15T19:48:34.958Z,25.15
2018-02-15T19:51:01.688Z,27.10
2018-02-15T19:53:28.494Z,27.48
2018-02-15T19:55:55.206Z,27.67
2018-02-15T19:58:21.931Z,28.45
2018-02-15T20:00:48.697Z,31.20
2018-02-15T20:03:15.671Z,30.00
2018-02-15T20:05:43.139Z,28.30
2018-02-15T20:08:09.911Z,30.33
2018-02-15T20:10:36.775Z,31.05
2018-02-15T20:13:03.663Z,35.30
2018-02-15T20:15:36.445Z,33.75
2018-02-15T20:18:04.036Z,32.45
2018-02-15T20:20:31.526Z,31.40
2018-02-15T20:22:58.280Z,31.95
2018-02-15T20:25:25.093Z,29.77
2018-02-15T20:27:58.621Z,28.42
2018-02-15T20:30:25.338Z,27.87
2018-02-15T20:32:52.785Z,30.45
2018-02-15T20:35:19.470Z,28.83
2018-02-15T20:51:11.012Z,26.42
2018-02-15T20:53:43.825Z,24.73
2018-02-15T20:56:10.564Z,26.73
2018-02-15T20:58:37.348Z,25.37
2018-02-15T21:01:04.837Z,27.10
2018-02-15T21:03:31.588Z,28.98
2018-02-15T21:05:58.355Z,27.70
2018-02-15T21:08:25.067Z,28.23
2018-02-15T21:10:51.813Z,27.60
2018-02-15T21:13:18.559Z,26.30
2018-02-15T21:15:45.299Z,24.67
2018-02-15T21:18:12.093Z,25.37
2018-02-15T21:20:38.838Z,24.80
2018-02-15T21:23:05.645Z,22.15
2018-02-15T21:25:32.371Z,23.45
2018-02-15T21:27:59.182Z,24.85
2018-02-15T21:30:26.098Z,23.52
2018-02-15T21:32:52.829Z,26.55
2018-02-15T21:35:19.650Z,25.33
2018-02-15T21:37:46.882Z,26.35
2018-02-15T21:40:13.730Z,24.33
2018-02-15T21:42:40.528Z,24.37
2018-02-15T21:45:07.240Z,22.40
2018-02-15T21:47:34.827Z,21.67
2018-02-15T21:50:01.592Z,20.80
2018-02-15T21:52:28.344Z,21.50
2018-02-15T21:54:55.345Z,23.42
2018-02-15T21:57:23.184Z,22.77
2018-02-15T21:59:49.972Z,21.55
2018-02-15T22:02:23.780Z,22.48
2018-02-15T22:04:50.567Z,22.62
2018-02-15T22:07:17.477Z,23.10
2018-02-15T22:09:44.177Z,22.65
2018-02-15T22:12:10.907Z,22.20
2018-02-15T22:14:37.645Z,23.10
2018-02-15T22:17:04.495Z,22.95
2018-02-15T22:19:31.180Z,18.98
2018-02-15T22:21:58.639Z,22.92
2018-02-15T22:24:26.126Z,22.27
2018-02-15T22:26:53.022Z,22.87
2018-02-15T22:29:19.751Z,21.33
2018-02-15T22:31:46.530Z,23.65
2018-02-15T22:34:14.058Z,24.50
2018-02-15T22:36:40.955Z,23.83
2018-02-15T22:39:07.654Z,23.50
2018-02-15T22:41:34.423Z,26.10
2018-02-15T22:44:01.127Z,22.83
2018-02-15T22:46:27.857Z,25.58
2018-02-15T22:48:54.561Z,25.02
2018-02-15T22:51:22.137Z,24.55
2018-02-15T22:53:49.551Z,22.92
2018-02-15T22:56:16.320Z,24.92
2018-02-15T22:58:43.029Z,24.37
2018-02-15T23:01:09.717Z,24.83
2018-02-15T23:03:37.266Z,22.65
2018-02-15T23:06:05.988Z,23.42
2018-02-15T23:08:33.584Z,25.27
2018-02-15T23:11:00.348Z,24.25
2018-02-15T23:13:27.141Z,24.95
2018-02-15T23:15:53.903Z,25.25
2018-02-15T23:18:20.607Z,23.80
2018-02-15T23:20:47.345Z,27.10
2018-02-15T23:23:14.156Z,24.58
2018-02-15T23:25:40.832Z,26.02
2018-02-15T23:28:07.705Z,27.55
2018-02-15T23:30:35.216Z,27.58
2018-02-15T23:33:01.984Z,26.70
2018-02-15T23:35:29.438Z,24.23
2018-02-15T23:37:56.149Z,26.10
2018-02-15T23:40:22.865Z,25.20
2018-02-15T23:42:49.649Z,26.87
2018-02-15T23:45:16.343Z,30.42
2018-02-15T23:47:43.787Z,29.58
2018-02-15T23:50:10.503Z,30.33
2018-02-15T23:52:38.260Z,26.90
2018-02-15T23:55:05.006Z,26.73
2018-02-15T23:57:31.750Z,28.05
2018-02-15T23:59:58.436Z,29.70
